Time;durP1;ratioP1;P1;durP2;ratioP2;P2;SDS_P1;SDS_P2;PMS_P1;PMS_P2;Temp;Humidity;BMP_temperature;BMP_pressure;BME280_temperature;BME280_humidity;BME280_pressure;Samples;Min_cycle;Max_cycle;Signal;HPM_P1;HPM_P2
2024/04/04 00:02:04;;;;;;;13.02;3.25;;;;;;;;;;4930230;29;20047;-88
2024/04/04 00:04:30;;;;;;;12.55;3.25;;;;;;;;;;4939634;29;20053;-89
2024/04/04 00:06:56;;;;;;;12.02;4.47;;;;;;;;;;4936944;29;20043;-89
2024/04/04 00:09:22;;;;;;;12.02;3.70;;;;;;;;;;4926347;29;20043;-90
2024/04/04 00:11:51;;;;;;;12.90;2.95;;;;;;;;;;4941150;29;20101;-89
2024/04/04 00:14:17;;;;;;;14.15;3.88;;;;;;;;;;4925458;29;20044;-89
2024/04/04 00:16:46;;;;;;;14.57;3.47;;;;;;;;;;4925132;29;20047;-89
2024/04/04 00:19:12;;;;;;;15.13;3.97;;;;;;;;;;4925111;29;20479;-89
2024/04/04 00:21:38;;;;;;;15.57;3.75;;;;;;;;;;4925383;29;20443;-89
2024/04/04 00:24:07;;;;;;;10.30;2.63;;;;;;;;;;4925051;29;20094;-89
2024/04/04 00:26:33;;;;;;;10.68;2.75;;;;;;;;;;4940872;29;20047;-89
2024/04/04 00:28:59;;;;;;;13.32;2.83;;;;;;;;;;4925332;29;20043;-89
2024/04/04 00:31:25;;;;;;;12.85;3.45;;;;;;;;;;4925041;29;20098;-89
2024/04/04 00:33:58;;;;;;;14.65;3.30;;;;;;;;;;4940803;29;20053;-89
2024/04/04 00:36:24;;;;;;;18.05;3.75;;;;;;;;;;4940827;29;20051;-89
2024/04/04 00:38:50;;;;;;;14.18;3.25;;;;;;;;;;4926394;29;20118;-89
2024/04/04 00:41:16;;;;;;;21.63;2.88;;;;;;;;;;4946744;28;20114;-89
2024/04/04 00:43:43;;;;;;;14.32;3.35;;;;;;;;;;4944122;28;20093;-89
2024/04/04 00:46:10;;;;;;;11.95;3.40;;;;;;;;;;4959941;28;20109;-89
2024/04/04 00:48:36;;;;;;;12.80;3.42;;;;;;;;;;4943849;28;20038;-89
2024/04/04 00:51:02;;;;;;;15.60;3.08;;;;;;;;;;4943887;28;20049;-89
2024/04/04 00:53:29;;;;;;;15.75;3.30;;;;;;;;;;4960011;28;20078;-89
2024/04/04 00:55:55;;;;;;;10.80;2.83;;;;;;;;;;4943780;28;20049;-89
2024/04/04 00:58:24;;;;;;;14.80;3.45;;;;;;;;;;4959596;28;20074;-89
2024/04/04 01:00:52;;;;;;;14.32;2.88;;;;;;;;;;4943963;28;20043;-89
2024/04/04 01:03:27;;;;;;;17.73;3.22;;;;;;;;;;4943779;28;20042;-89
2024/04/04 01:05:53;;;;;;;11.85;2.65;;;;;;;;;;4943971;28;20086;-89
2024/04/04 01:08:19;;;;;;;14.25;3.30;;;;;;;;;;4944343;28;20093;-89
2024/04/04 01:10:45;;;;;;;14.88;3.60;;;;;;;;;;4943432;28;20070;-89
2024/04/04 01:13:11;;;;;;;17.23;4.53;;;;;;;;;;4942552;28;20039;-89
2024/04/04 01:15:37;;;;;;;12.20;2.58;;;;;;;;;;4943337;28;20038;-89
2024/04/04 01:18:04;;;;;;;15.32;3.38;;;;;;;;;;4959611;28;20074;-89
2024/04/04 01:20:30;;;;;;;13.63;3.22;;;;;;;;;;4943697;28;20497;-89
2024/04/04 01:23:02;;;;;;;9.80;2.40;;;;;;;;;;4943309;28;20046;-89
2024/04/04 01:25:33;;;;;;;12.65;2.65;;;;;;;;;;4943035;28;20082;-89
2024/04/04 01:27:59;;;;;;;13.43;2.80;;;;;;;;;;4942828;28;20046;-89
2024/04/04 01:30:28;;;;;;;10.95;3.28;;;;;;;;;;4943154;28;20105;-89
2024/04/04 01:32:55;;;;;;;14.02;2.88;;;;;;;;;;4943114;28;20069;-89
2024/04/04 01:35:21;;;;;;;12.45;3.95;;;;;;;;;;4959152;28;20043;-89
2024/04/04 01:37:50;;;;;;;9.73;2.47;;;;;;;;;;4943681;28;20050;-89
2024/04/04 01:40:16;;;;;;;12.65;2.70;;;;;;;;;;4942660;28;20042;-89
2024/04/04 01:42:42;;;;;;;9.80;2.58;;;;;;;;;;4927168;29;20047;-89
2024/04/04 01:45:20;;;;;;;13.55;3.50;;;;;;;;;;4923771;29;20043;-89
2024/04/04 01:47:46;;;;;;;13.98;4.03;;;;;;;;;;4923851;29;20392;-89
2024/04/04 01:50:12;;;;;;;13.02;2.97;;;;;;;;;;4923977;29;20561;-89
2024/04/04 01:52:41;;;;;;;12.63;2.60;;;;;;;;;;4923838;29;20427;-89
2024/04/04 01:55:07;;;;;;;12.80;3.10;;;;;;;;;;4923425;29;20098;-89
2024/04/04 01:57:33;;;;;;;13.73;2.58;;;;;;;;;;4923681;29;20380;-89
2024/04/04 02:00:05;;;;;;;12.30;3.47;;;;;;;;;;4939038;29;20087;-89
2024/04/04 02:02:31;;;;;;;11.43;2.35;;;;;;;;;;4939595;29;20043;-90
2024/04/04 02:04:58;;;;;;;15.93;3.67;;;;;;;;;;4923498;29;20050;-90
2024/04/04 02:07:27;;;;;;;13.27;2.80;;;;;;;;;;4923610;29;20553;-89
2024/04/04 02:09:56;;;;;;;15.90;3.10;;;;;;;;;;4923511;29;20051;-90
2024/04/04 02:12:22;;;;;;;16.17;3.28;;;;;;;;;;4923129;29;20062;-89
2024/04/04 02:15:09;;;;;;;13.35;2.63;;;;;;;;;;4923708;29;20043;-89
2024/04/04 02:17:36;;;;;;;9.95;2.63;;;;;;;;;;4939382;29;20443;-89
2024/04/04 02:20:02;;;;;;;11.50;2.38;;;;;;;;;;4923636;29;20047;-89
2024/04/04 02:22:31;;;;;;;12.15;2.70;;;;;;;;;;4923183;29;20399;-90
2024/04/04 02:25:04;;;;;;;16.60;3.17;;;;;;;;;;4938858;29;20050;-89
2024/04/04 02:27:39;;;;;;;15.95;2.83;;;;;;;;;;4922867;29;20043;-89
2024/04/04 02:30:05;;;;;;;12.73;2.13;;;;;;;;;;4938846;29;20045;-89
2024/04/04 02:32:32;;;;;;;13.25;3.05;;;;;;;;;;4939310;29;20117;-90
2024/04/04 02:35:01;;;;;;;15.35;3.15;;;;;;;;;;4922984;29;20040;-90
2024/04/04 02:37:27;;;;;;;14.68;3.38;;;;;;;;;;4922982;29;20054;-90
2024/04/04 02:39:59;;;;;;;10.05;2.50;;;;;;;;;;4922952;29;20043;-90
2024/04/04 02:42:25;;;;;;;11.73;2.60;;;;;;;;;;4951105;28;20059;-91
2024/04/04 02:44:51;;;;;;;12.18;2.53;;;;;;;;;;4941431;28;20046;-91
2024/04/04 02:47:23;;;;;;;12.23;2.55;;;;;;;;;;4957094;28;20046;-90
2024/04/04 02:49:54;;;;;;;14.32;2.20;;;;;;;;;;4940723;28;20043;-91
2024/04/04 02:52:20;;;;;;;13.63;3.20;;;;;;;;;;4941169;28;20042;-91
2024/04/04 02:54:46;;;;;;;7.50;2.50;;;;;;;;;;4941085;28;20081;-91
2024/04/04 02:57:15;;;;;;;15.02;2.63;;;;;;;;;;4940758;28;20054;-91
2024/04/04 02:59:44;;;;;;;12.43;2.60;;;;;;;;;;4940691;28;20038;-91
2024/04/04 03:02:10;;;;;;;13.65;2.67;;;;;;;;;;4941382;28;20062;-91
2024/04/04 03:04:37;;;;;;;12.15;2.67;;;;;;;;;;4940899;28;20490;-91
2024/04/04 03:07:03;;;;;;;8.90;2.65;;;;;;;;;;4940496;28;20592;-91
2024/04/04 03:09:39;;;;;;;12.85;2.50;;;;;;;;;;4956852;28;20042;-91
2024/04/04 03:12:07;;;;;;;13.02;2.80;;;;;;;;;;4941179;28;20086;-91
2024/04/04 03:14:37;;;;;;;8.82;2.22;;;;;;;;;;4940430;28;20149;-91
2024/04/04 03:17:03;;;;;;;11.77;3.00;;;;;;;;;;4940820;28;20042;-91
2024/04/04 03:19:29;;;;;;;9.43;1.92;;;;;;;;;;4956802;28;20035;-91
2024/04/04 03:21:55;;;;;;;11.75;2.40;;;;;;;;;;4956498;28;20042;-91
2024/04/04 03:24:27;;;;;;;9.93;2.38;;;;;;;;;;4940845;28;20046;-91
2024/04/04 03:26:53;;;;;;;7.80;2.47;;;;;;;;;;4941254;28;20691;-91
2024/04/04 03:29:19;;;;;;;10.52;2.25;;;;;;;;;;4957510;28;20426;-91
2024/04/04 03:31:48;;;;;;;11.60;2.38;;;;;;;;;;4940639;28;20069;-91
2024/04/04 03:34:20;;;;;;;14.07;2.92;;;;;;;;;;4956528;28;20066;-90
2024/04/04 03:36:49;;;;;;;10.00;2.25;;;;;;;;;;4941465;28;20050;-91
2024/04/04 03:39:21;;;;;;;7.85;2.08;;;;;;;;;;4944912;28;20378;-90
2024/04/04 03:41:50;;;;;;;8.85;2.25;;;;;;;;;;4936849;29;20094;-91
2024/04/04 03:44:16;;;;;;;14.70;2.55;;;;;;;;;;4925078;29;20134;-91
2024/04/04 03:46:47;;;;;;;10.93;2.00;;;;;;;;;;4925015;29;20154;-90
2024/04/04 03:49:16;;;;;;;8.50;2.30;;;;;;;;;;4924843;29;20142;-91
2024/04/04 03:51:42;;;;;;;6.85;2.28;;;;;;;;;;4925319;29;20057;-91
2024/04/04 03:54:08;;;;;;;9.43;2.30;;;;;;;;;;4924914;29;20043;-91
2024/04/04 03:56:34;;;;;;;7.47;1.58;;;;;;;;;;4940912;29;20482;-91
2024/04/04 03:59:00;;;;;;;8.02;1.75;;;;;;;;;;4925000;29;20521;-91
2024/04/04 04:01:32;;;;;;;9.30;1.95;;;;;;;;;;4924847;29;20035;-91
2024/04/04 04:04:01;;;;;;;6.03;1.90;;;;;;;;;;4926019;29;20047;-91
2024/04/04 04:06:27;;;;;;;9.38;2.13;;;;;;;;;;4940630;29;20050;-92
2024/04/04 04:08:53;;;;;;;6.68;1.70;;;;;;;;;;4940663;29;20086;-92
2024/04/04 04:11:28;;;;;;;5.43;1.50;;;;;;;;;;4924608;29;20082;-91
2024/04/04 04:13:54;;;;;;;7.93;1.70;;;;;;;;;;4940340;29;20047;-92
2024/04/04 04:16:20;;;;;;;5.30;1.73;;;;;;;;;;4924820;29;20039;-92
2024/04/04 04:18:52;;;;;;;7.90;1.70;;;;;;;;;;4931484;29;20086;-88
2024/04/04 04:21:20;;;;;;;8.38;1.95;;;;;;;;;;4942477;29;20043;-92
2024/04/04 04:23:57;;;;;;;7.80;1.80;;;;;;;;;;4942439;29;20039;-92
2024/04/04 04:26:23;;;;;;;9.38;1.95;;;;;;;;;;4925516;29;20565;-91
2024/04/04 04:28:49;;;;;;;5.97;1.63;;;;;;;;;;4924726;29;20039;-92
2024/04/04 04:31:26;;;;;;;5.57;2.03;;;;;;;;;;4924371;29;20039;-92
2024/04/04 04:33:56;;;;;;;5.22;1.75;;;;;;;;;;4924421;29;20135;-92
2024/04/04 04:36:32;;;;;;;6.38;1.50;;;;;;;;;;4940713;29;20039;-91
2024/04/04 04:38:59;;;;;;;7.80;1.73;;;;;;;;;;4930333;29;20039;-88
2024/04/04 04:41:28;;;;;;;6.20;1.45;;;;;;;;;;4942041;29;20069;-91
2024/04/04 04:43:54;;;;;;;5.70;1.70;;;;;;;;;;4943437;29;20577;-91
2024/04/04 04:46:20;;;;;;;7.28;1.67;;;;;;;;;;4928327;29;20084;-91
2024/04/04 04:48:47;;;;;;;5.97;1.48;;;;;;;;;;4924309;29;20409;-89
2024/04/04 04:51:13;;;;;;;5.65;1.50;;;;;;;;;;4924910;29;20182;-90
2024/04/04 04:53:39;;;;;;;6.90;1.67;;;;;;;;;;4924455;29;20402;-91
2024/04/04 04:56:09;;;;;;;10.32;1.98;;;;;;;;;;4924444;29;20050;-90
2024/04/04 04:58:35;;;;;;;7.68;1.90;;;;;;;;;;4940987;29;20057;-90
2024/04/04 05:01:05;;;;;;;7.53;1.98;;;;;;;;;;4923864;29;20047;-91
2024/04/04 05:03:31;;;;;;;6.68;2.35;;;;;;;;;;4923855;29;20079;-91
2024/04/04 05:05:57;;;;;;;8.43;2.92;;;;;;;;;;4923827;29;20066;-91
2024/04/04 05:08:23;;;;;;;6.68;3.15;;;;;;;;;;4923995;29;20101;-91
2024/04/04 05:10:49;;;;;;;9.65;3.15;;;;;;;;;;4923773;29;20035;-91
2024/04/04 05:13:15;;;;;;;10.75;2.88;;;;;;;;;;4943678;29;20031;-90
2024/04/04 05:15:45;;;;;;;11.13;3.50;;;;;;;;;;4942006;29;20498;-90
2024/04/04 05:18:11;;;;;;;14.30;4.60;;;;;;;;;;4925240;29;20039;-90
2024/04/04 05:20:38;;;;;;;13.05;3.72;;;;;;;;;;4925156;29;20039;-90
2024/04/04 05:23:04;;;;;;;9.25;3.45;;;;;;;;;;4940088;29;20098;-90
2024/04/04 05:25:30;;;;;;;13.30;3.95;;;;;;;;;;4924453;29;20043;-90
2024/04/04 05:27:56;;;;;;;11.50;4.20;;;;;;;;;;4924497;29;20039;-89
2024/04/04 05:30:22;;;;;;;10.25;3.65;;;;;;;;;;4924306;29;20050;-90
2024/04/04 05:32:49;;;;;;;9.10;3.35;;;;;;;;;;4928117;29;20443;-90
2024/04/04 05:35:15;;;;;;;10.15;4.43;;;;;;;;;;4924950;29;20043;-91
2024/04/04 05:37:41;;;;;;;14.25;4.45;;;;;;;;;;4925106;29;20035;-91
2024/04/04 05:40:08;;;;;;;14.30;4.60;;;;;;;;;;4925031;29;20542;-88
2024/04/04 05:42:34;;;;;;;10.40;4.45;;;;;;;;;;4955237;28;20557;-89
2024/04/04 05:45:09;;;;;;;9.10;4.47;;;;;;;;;;4943791;28;20042;-89
2024/04/04 05:47:36;;;;;;;13.13;5.18;;;;;;;;;;4943239;28;20093;-90
2024/04/04 05:50:02;;;;;;;14.73;5.10;;;;;;;;;;4959100;28;20422;-90
2024/04/04 05:52:28;;;;;;;16.33;5.53;;;;;;;;;;4944508;28;20046;-90
2024/04/04 05:54:54;;;;;;;10.85;4.53;;;;;;;;;;4943133;28;20486;-88
2024/04/04 05:57:23;;;;;;;13.77;4.78;;;;;;;;;;4943446;28;20575;-90
2024/04/04 05:59:58;;;;;;;16.05;6.20;;;;;;;;;;4944482;28;20035;-90
2024/04/04 06:02:24;;;;;;;13.57;5.90;;;;;;;;;;4945160;28;20043;-90
2024/04/04 06:04:53;;;;;;;14.20;5.65;;;;;;;;;;4943847;28;20038;-90
2024/04/04 06:07:20;;;;;;;13.32;5.53;;;;;;;;;;4944876;28;20053;-90
2024/04/04 06:09:46;;;;;;;15.73;6.35;;;;;;;;;;4942885;28;20054;-90
2024/04/04 06:12:12;;;;;;;12.85;5.32;;;;;;;;;;4942107;28;20375;-89
2024/04/04 06:14:38;;;;;;;13.55;6.65;;;;;;;;;;4941952;28;20049;-89
2024/04/04 06:17:04;;;;;;;12.13;7.63;;;;;;;;;;4941931;28;20049;-90
2024/04/04 06:19:30;;;;;;;16.85;6.97;;;;;;;;;;4941944;28;20390;-90
2024/04/04 06:21:56;;;;;;;14.77;6.60;;;;;;;;;;4942667;28;20043;-89
2024/04/04 06:24:23;;;;;;;12.90;6.32;;;;;;;;;;4942341;28;20038;-89
2024/04/04 06:26:49;;;;;;;12.98;6.88;;;;;;;;;;4957919;28;20552;-89
2024/04/04 06:29:19;;;;;;;11.60;7.10;;;;;;;;;;4942042;28;20057;-90
2024/04/04 06:31:46;;;;;;;13.68;7.13;;;;;;;;;;4958314;28;20049;-89
2024/04/04 06:34:16;;;;;;;14.40;6.90;;;;;;;;;;4942009;28;20049;-89
2024/04/04 06:36:42;;;;;;;10.93;7.30;;;;;;;;;;4942093;28;20074;-89
2024/04/04 06:39:09;;;;;;;11.80;7.13;;;;;;;;;;4958162;28;20089;-89
2024/04/04 06:41:35;;;;;;;11.23;8.00;;;;;;;;;;4936111;29;20402;-89
2024/04/04 06:44:01;;;;;;;15.75;8.90;;;;;;;;;;4922912;29;20054;-89
2024/04/04 06:46:27;;;;;;;12.25;8.35;;;;;;;;;;4922603;29;20039;-89
2024/04/04 06:48:53;;;;;;;10.38;7.70;;;;;;;;;;4938494;29;20125;-89
2024/04/04 06:51:21;;;;;;;12.15;8.15;;;;;;;;;;4922898;29;20098;-90
2024/04/04 06:53:47;;;;;;;11.85;8.68;;;;;;;;;;4938358;29;20127;-89
2024/04/04 06:56:13;;;;;;;14.85;9.38;;;;;;;;;;4922856;29;20126;-89
2024/04/04 06:58:39;;;;;;;12.98;8.77;;;;;;;;;;4922930;29;20094;-89
2024/04/04 07:01:05;;;;;;;13.88;9.18;;;;;;;;;;4922966;29;20426;-89
2024/04/04 07:03:31;;;;;;;13.98;9.25;;;;;;;;;;4922573;29;20094;-89
2024/04/04 07:05:57;;;;;;;12.63;9.40;;;;;;;;;;4938389;29;20043;-89
2024/04/04 07:08:23;;;;;;;16.88;10.30;;;;;;;;;;4922829;29;20122;-89
2024/04/04 07:10:49;;;;;;;11.68;9.05;;;;;;;;;;4922183;29;20054;-90
2024/04/04 07:13:16;;;;;;;11.07;9.27;;;;;;;;;;4922278;29;20126;-90
2024/04/04 07:15:42;;;;;;;12.10;9.60;;;;;;;;;;4922599;29;20414;-90
2024/04/04 07:18:09;;;;;;;11.57;10.05;;;;;;;;;;4923676;29;20043;-89
2024/04/04 07:20:39;;;;;;;10.77;8.82;;;;;;;;;;4922428;29;20078;-90
2024/04/04 07:23:07;;;;;;;13.77;9.70;;;;;;;;;;4922638;29;20089;-90
2024/04/04 07:25:33;;;;;;;16.25;9.98;;;;;;;;;;4922593;29;20047;-90
2024/04/04 07:28:01;;;;;;;11.43;9.43;;;;;;;;;;4922738;29;20402;-90
2024/04/04 07:30:29;;;;;;;13.18;9.23;;;;;;;;;;4922341;29;20047;-90
2024/04/04 07:32:55;;;;;;;14.32;10.20;;;;;;;;;;4922410;29;20050;-89
2024/04/04 07:35:21;;;;;;;11.95;9.40;;;;;;;;;;4922325;29;20047;-90
2024/04/04 07:37:47;;;;;;;11.25;9.02;;;;;;;;;;4922570;29;20066;-90
2024/04/04 07:40:13;;;;;;;9.68;7.82;;;;;;;;;;4938354;29;20405;-90
2024/04/04 07:42:39;;;;;;;9.05;7.30;;;;;;;;;;4922292;29;20138;-90
2024/04/04 07:45:06;;;;;;;7.97;6.45;;;;;;;;;;4922318;29;20125;-89
2024/04/04 07:47:32;;;;;;;10.00;7.13;;;;;;;;;;4922466;29;20394;-89
2024/04/04 07:50:03;;;;;;;9.30;7.28;;;;;;;;;;4922548;29;20074;-89
2024/04/04 07:52:29;;;;;;;12.68;8.35;;;;;;;;;;4922371;29;20055;-90
2024/04/04 07:54:55;;;;;;;9.32;8.32;;;;;;;;;;4922117;29;20098;-90
2024/04/04 07:57:21;;;;;;;11.70;9.10;;;;;;;;;;4922294;29;20047;-90
2024/04/04 07:59:47;;;;;;;10.82;8.25;;;;;;;;;;4938012;29;20497;-89
2024/04/04 08:02:13;;;;;;;11.13;8.55;;;;;;;;;;4922460;29;20051;-90
2024/04/04 08:04:39;;;;;;;10.30;8.63;;;;;;;;;;4922178;29;20055;-89
2024/04/04 08:07:05;;;;;;;10.30;8.68;;;;;;;;;;4922329;29;20340;-90
2024/04/04 08:09:31;;;;;;;10.35;8.35;;;;;;;;;;4938275;29;20043;-89
2024/04/04 08:11:57;;;;;;;9.95;8.57;;;;;;;;;;4922470;29;20538;-89
2024/04/04 08:14:25;;;;;;;12.32;9.05;;;;;;;;;;4922050;29;20138;-90
2024/04/04 08:16:51;;;;;;;10.70;8.05;;;;;;;;;;4922467;29;20077;-89
2024/04/04 08:19:17;;;;;;;11.95;8.60;;;;;;;;;;4922093;29;20035;-90
2024/04/04 08:21:43;;;;;;;10.20;8.43;;;;;;;;;;4922064;29;20051;-89
2024/04/04 08:24:09;;;;;;;9.95;7.82;;;;;;;;;;4924930;29;20105;-89
2024/04/04 08:26:35;;;;;;;11.25;8.05;;;;;;;;;;4941289;29;20039;-89
2024/04/04 08:29:01;;;;;;;9.60;6.68;;;;;;;;;;4925384;29;20051;-89
2024/04/04 08:31:27;;;;;;;10.38;7.68;;;;;;;;;;4940645;29;20047;-88
2024/04/04 08:33:54;;;;;;;8.77;7.15;;;;;;;;;;4924864;29;20051;-89
2024/04/04 08:36:20;;;;;;;8.48;6.80;;;;;;;;;;4925041;29;20043;-89
2024/04/04 08:38:46;;;;;;;10.68;7.22;;;;;;;;;;4924995;29;20090;-89
2024/04/04 08:41:17;;;;;;;10.15;7.40;;;;;;;;;;4928312;28;20065;-89
2024/04/04 08:43:43;;;;;;;8.23;6.85;;;;;;;;;;4944257;28;20043;-89
2024/04/04 08:46:15;;;;;;;8.32;6.10;;;;;;;;;;4943790;28;20038;-89
2024/04/04 08:48:41;;;;;;;8.07;6.25;;;;;;;;;;4961276;28;20041;-89
2024/04/04 08:51:09;;;;;;;8.68;5.80;;;;;;;;;;4943856;28;20046;-89
2024/04/04 08:53:36;;;;;;;6.55;5.35;;;;;;;;;;4959751;28;20101;-89
2024/04/04 08:56:05;;;;;;;6.97;5.30;;;;;;;;;;4959651;28;20058;-89
2024/04/04 08:58:31;;;;;;;7.30;5.00;;;;;;;;;;4943974;28;20098;-89
2024/04/04 09:00:57;;;;;;;6.15;5.07;;;;;;;;;;4955008;28;20466;-89
2024/04/04 09:03:23;;;;;;;6.70;4.57;;;;;;;;;;4962122;28;20043;-90
2024/04/04 09:05:49;;;;;;;7.57;4.75;;;;;;;;;;4958926;28;20045;-89
2024/04/04 09:08:16;;;;;;;7.82;4.93;;;;;;;;;;4943898;28;20043;-90
2024/04/04 09:10:45;;;;;;;6.63;4.63;;;;;;;;;;4960054;28;20389;-90
2024/04/04 09:13:12;;;;;;;6.18;4.63;;;;;;;;;;4959436;28;20049;-89
2024/04/04 09:15:39;;;;;;;5.57;4.05;;;;;;;;;;4943296;28;20043;-90
2024/04/04 09:18:09;;;;;;;8.55;4.38;;;;;;;;;;4944259;28;20187;-90
2024/04/04 09:20:39;;;;;;;5.97;4.25;;;;;;;;;;4949800;28;20043;-86
2024/04/04 09:23:15;;;;;;;9.15;4.60;;;;;;;;;;4961011;28;20027;-90
2024/04/04 09:25:41;;;;;;;5.82;4.28;;;;;;;;;;4960555;28;20046;-90
2024/04/04 09:28:13;;;;;;;5.68;4.03;;;;;;;;;;4944548;28;20051;-90
2024/04/04 09:30:41;;;;;;;5.60;4.20;;;;;;;;;;4943499;28;20038;-91
2024/04/04 09:33:08;;;;;;;6.60;4.50;;;;;;;;;;4943066;28;20089;-91
2024/04/04 09:35:35;;;;;;;8.23;4.28;;;;;;;;;;4943206;28;20043;-91
2024/04/04 09:38:01;;;;;;;6.68;4.30;;;;;;;;;;4943075;28;20039;-91
2024/04/04 09:40:27;;;;;;;7.53;4.43;;;;;;;;;;4943147;28;20593;-90
2024/04/04 09:42:53;;;;;;;7.00;4.05;;;;;;;;;;4927052;29;20082;-91
2024/04/04 09:45:20;;;;;;;6.25;4.22;;;;;;;;;;4923774;29;20047;-91
2024/04/04 09:47:47;;;;;;;6.80;4.28;;;;;;;;;;4939870;29;20509;-90
2024/04/04 09:50:15;;;;;;;7.55;4.40;;;;;;;;;;4923785;29;20129;-90
2024/04/04 09:52:44;;;;;;;7.38;4.47;;;;;;;;;;4924083;29;20130;-90
2024/04/04 09:55:15;;;;;;;7.53;4.60;;;;;;;;;;4923850;29;20115;-90
2024/04/04 09:57:42;;;;;;;8.13;4.88;;;;;;;;;;4923541;29;20043;-90
2024/04/04 10:00:16;;;;;;;8.95;4.25;;;;;;;;;;4923558;29;20477;-90
2024/04/04 10:03:03;;;;;;;7.40;4.53;;;;;;;;;;4924268;29;20039;-90
2024/04/04 10:05:32;;;;;;;9.60;3.87;;;;;;;;;;4923278;29;20050;-90
2024/04/04 10:08:06;;;;;;;5.82;3.50;;;;;;;;;;4923294;29;20047;-90
2024/04/04 10:10:39;;;;;;;5.35;2.00;;;;;;;;;;4938853;29;20081;-90
2024/04/04 10:13:06;;;;;;;3.55;1.60;;;;;;;;;;4922876;29;20047;-90
2024/04/04 10:15:58;;;;;;;2.95;1.75;;;;;;;;;;4938091;29;20129;-90
2024/04/04 10:18:27;;;;;;;5.50;2.33;;;;;;;;;;4923411;29;20101;-90
2024/04/04 10:20:56;;;;;;;5.25;2.40;;;;;;;;;;4922832;29;20047;-90
2024/04/04 10:23:31;;;;;;;4.05;2.90;;;;;;;;;;4922383;29;20050;-90
2024/04/04 10:26:09;;;;;;;5.75;3.60;;;;;;;;;;4939431;29;20050;-90
2024/04/04 10:28:36;;;;;;;7.95;4.43;;;;;;;;;;4923791;29;20086;-90
2024/04/04 10:31:04;;;;;;;10.75;5.72;;;;;;;;;;4923172;29;20082;-90
2024/04/04 10:33:30;;;;;;;8.48;5.18;;;;;;;;;;4922652;29;20045;-90
2024/04/04 10:35:57;;;;;;;10.25;5.65;;;;;;;;;;4922678;29;20074;-90
2024/04/04 10:38:23;;;;;;;12.40;5.63;;;;;;;;;;4922751;29;20090;-90
2024/04/04 10:40:52;;;;;;;12.38;5.70;;;;;;;;;;4938189;29;20039;-90
2024/04/04 10:43:18;;;;;;;9.07;6.07;;;;;;;;;;4922022;29;20094;-90
2024/04/04 10:45:44;;;;;;;8.98;4.90;;;;;;;;;;4921554;29;20051;-90
2024/04/04 10:48:13;;;;;;;9.05;4.00;;;;;;;;;;4921825;29;20039;-90
2024/04/04 10:50:39;;;;;;;11.90;4.10;;;;;;;;;;4937910;29;20047;-90
2024/04/04 10:53:05;;;;;;;10.23;4.28;;;;;;;;;;4921947;29;20043;-90
2024/04/04 10:55:33;;;;;;;9.35;2.80;;;;;;;;;;4923274;29;20406;-90
2024/04/04 10:57:59;;;;;;;7.32;3.40;;;;;;;;;;4922813;29;20042;-90
2024/04/04 11:00:35;;;;;;;7.72;3.05;;;;;;;;;;4922410;29;20494;-90
2024/04/04 11:03:03;;;;;;;7.28;3.33;;;;;;;;;;4938153;29;20517;-90
2024/04/04 11:05:29;;;;;;;8.90;3.00;;;;;;;;;;4938239;29;20047;-90
2024/04/04 11:07:59;;;;;;;8.18;2.67;;;;;;;;;;4922348;29;20043;-90
2024/04/04 11:10:29;;;;;;;6.22;3.13;;;;;;;;;;4922875;29;20051;-91
2024/04/04 11:12:57;;;;;;;3.85;1.77;;;;;;;;;;4922309;29;20047;-90
2024/04/04 11:15:23;;;;;;;6.85;1.98;;;;;;;;;;4922455;29;20399;-90
2024/04/04 11:17:49;;;;;;;6.45;2.05;;;;;;;;;;4922641;29;20043;-90
2024/04/04 11:20:16;;;;;;;2.85;1.58;;;;;;;;;;4922477;29;20043;-90
2024/04/04 11:22:43;;;;;;;4.38;1.73;;;;;;;;;;4922823;29;20467;-91
2024/04/04 11:25:09;;;;;;;6.28;1.63;;;;;;;;;;4922363;29;20039;-91
2024/04/04 11:27:36;;;;;;;5.45;2.05;;;;;;;;;;4923107;29;20043;-90
2024/04/04 11:30:02;;;;;;;5.28;1.42;;;;;;;;;;4923054;29;20125;-89
2024/04/04 11:32:28;;;;;;;5.47;1.30;;;;;;;;;;4922661;29;20059;-90
2024/04/04 11:34:54;;;;;;;5.35;1.50;;;;;;;;;;4938261;29;20055;-90
2024/04/04 11:37:22;;;;;;;8.88;2.03;;;;;;;;;;4922736;29;20109;-90
2024/04/04 11:39:48;;;;;;;8.00;2.05;;;;;;;;;;4922619;29;20070;-90
2024/04/04 11:42:14;;;;;;;6.18;1.73;;;;;;;;;;4932569;28;20544;-90
2024/04/04 11:44:40;;;;;;;8.85;3.63;;;;;;;;;;4940819;28;20046;-90
2024/04/04 11:47:06;;;;;;;8.00;2.33;;;;;;;;;;4940984;28;20039;-90
2024/04/04 11:49:32;;;;;;;6.13;2.38;;;;;;;;;;4941164;28;20078;-90
2024/04/04 11:51:58;;;;;;;7.70;2.35;;;;;;;;;;4941262;28;20043;-90
2024/04/04 11:54:24;;;;;;;10.55;2.40;;;;;;;;;;4956741;28;20054;-90
2024/04/04 11:56:50;;;;;;;7.20;2.55;;;;;;;;;;4941172;28;20398;-90
2024/04/04 11:59:24;;;;;;;7.32;2.03;;;;;;;;;;4944749;28;20039;-90
2024/04/04 12:01:54;;;;;;;7.20;2.10;;;;;;;;;;4945031;28;20061;-90
2024/04/04 12:04:27;;;;;;;7.82;2.00;;;;;;;;;;4944702;28;20336;-90
2024/04/04 12:06:53;;;;;;;7.45;1.83;;;;;;;;;;4944605;28;20097;-90
2024/04/04 12:09:21;;;;;;;13.05;2.90;;;;;;;;;;4945072;28;20047;-90
2024/04/04 12:11:47;;;;;;;6.50;2.10;;;;;;;;;;4944973;28;20394;-90
2024/04/04 12:14:13;;;;;;;7.53;2.50;;;;;;;;;;4944829;28;20050;-90
2024/04/04 12:16:40;;;;;;;6.07;1.98;;;;;;;;;;4944887;28;20047;-90
2024/04/04 12:21:50;;;;;;;11.15;3.03;;;;;;;;;;4960525;28;20098;-90
2024/04/04 12:24:16;;;;;;;12.15;2.83;;;;;;;;;;4960132;28;20457;-90
2024/04/04 12:26:43;;;;;;;12.27;2.10;;;;;;;;;;4944549;28;20100;-90
2024/04/04 12:29:10;;;;;;;13.07;1.90;;;;;;;;;;4944091;28;20478;-90
2024/04/04 12:31:36;;;;;;;13.75;2.85;;;;;;;;;;4944001;28;20482;-90
2024/04/04 12:34:03;;;;;;;11.40;2.60;;;;;;;;;;4944271;28;20066;-90
2024/04/04 12:36:29;;;;;;;11.48;2.97;;;;;;;;;;4960223;28;20446;-91
2024/04/04 12:38:55;;;;;;;10.82;2.15;;;;;;;;;;4944086;28;20047;-90
2024/04/04 12:41:21;;;;;;;11.02;2.40;;;;;;;;;;4944533;28;20061;-90
2024/04/04 12:43:47;;;;;;;11.13;2.78;;;;;;;;;;4958992;28;20047;-90
2024/04/04 12:46:14;;;;;;;12.52;2.75;;;;;;;;;;4943125;28;20042;-90
2024/04/04 12:48:46;;;;;;;13.25;2.90;;;;;;;;;;4943702;28;20130;-91
2024/04/04 12:51:12;;;;;;;8.82;2.30;;;;;;;;;;4958809;28;20046;-90
2024/04/04 12:53:38;;;;;;;10.02;2.67;;;;;;;;;;4942835;28;20043;-90
2024/04/04 12:56:04;;;;;;;12.30;2.90;;;;;;;;;;4942884;28;20058;-90
2024/04/04 12:58:31;;;;;;;9.70;2.45;;;;;;;;;;4959696;28;20070;-90
2024/04/04 13:01:00;;;;;;;13.18;2.95;;;;;;;;;;4943188;28;20066;-90
2024/04/04 13:03:27;;;;;;;12.52;2.00;;;;;;;;;;4942561;28;20043;-90
2024/04/04 13:05:53;;;;;;;12.07;2.38;;;;;;;;;;4959371;28;20066;-90
2024/04/04 13:08:19;;;;;;;12.25;3.00;;;;;;;;;;4945301;28;20133;-87
2024/04/04 13:10:46;;;;;;;12.20;2.35;;;;;;;;;;4965756;28;20054;-91
2024/04/04 13:13:12;;;;;;;9.25;2.50;;;;;;;;;;4966043;28;20110;-90
2024/04/04 13:15:39;;;;;;;8.23;1.70;;;;;;;;;;4948621;28;20038;-90
2024/04/04 13:18:06;;;;;;;14.52;4.25;;;;;;;;;;4942523;28;20047;-90
2024/04/04 13:20:32;;;;;;;12.70;3.45;;;;;;;;;;4943165;28;20038;-90
2024/04/04 13:22:58;;;;;;;7.13;2.60;;;;;;;;;;4959488;28;20042;-90
2024/04/04 13:25:25;;;;;;;10.77;2.55;;;;;;;;;;4942527;28;20042;-90
2024/04/04 13:27:51;;;;;;;8.20;2.88;;;;;;;;;;4943899;28;20069;-86
2024/04/04 13:30:18;;;;;;;12.50;2.38;;;;;;;;;;4964243;28;20047;-90
2024/04/04 13:32:44;;;;;;;11.57;2.90;;;;;;;;;;4962945;28;20035;-90
2024/04/04 13:35:10;;;;;;;13.32;3.08;;;;;;;;;;4948853;28;20508;-90
2024/04/04 13:37:36;;;;;;;13.98;2.20;;;;;;;;;;4942385;28;20130;-90
2024/04/04 13:40:03;;;;;;;8.93;2.65;;;;;;;;;;4958561;28;20042;-90
2024/04/04 13:42:29;;;;;;;13.55;3.50;;;;;;;;;;4904785;28;1114516;-90
2024/04/04 13:44:55;;;;;;;14.68;2.72;;;;;;;;;;4943835;28;20046;-90
2024/04/04 13:47:21;;;;;;;8.55;1.85;;;;;;;;;;4943303;28;20043;-90
2024/04/04 13:49:47;;;;;;;10.25;2.50;;;;;;;;;;4958937;28;20046;-90
2024/04/04 13:52:13;;;;;;;8.80;1.92;;;;;;;;;;4959175;28;20422;-90
2024/04/04 13:54:39;;;;;;;11.25;2.47;;;;;;;;;;4942814;28;20043;-90
2024/04/04 13:57:06;;;;;;;9.15;1.77;;;;;;;;;;4942870;28;20498;-90
2024/04/04 13:59:32;;;;;;;11.38;2.03;;;;;;;;;;4958970;28;20132;-90
2024/04/04 14:02:07;;;;;;;9.35;2.47;;;;;;;;;;4942765;28;20039;-90
2024/04/04 14:04:35;;;;;;;13.48;3.45;;;;;;;;;;4942698;28;20039;-90
2024/04/04 14:07:03;;;;;;;11.65;2.25;;;;;;;;;;4942444;28;20097;-90
2024/04/04 14:09:29;;;;;;;14.35;2.70;;;;;;;;;;4942797;28;20047;-90
2024/04/04 14:11:55;;;;;;;8.43;2.58;;;;;;;;;;4942653;28;20409;-90
2024/04/04 14:14:21;;;;;;;13.27;2.83;;;;;;;;;;4942400;28;20512;-90
2024/04/04 14:16:47;;;;;;;11.15;2.13;;;;;;;;;;4942525;28;20074;-90
2024/04/04 14:19:13;;;;;;;11.60;2.50;;;;;;;;;;4942412;28;20070;-90
2024/04/04 14:21:39;;;;;;;11.45;2.45;;;;;;;;;;4942511;28;20042;-90
2024/04/04 14:24:05;;;;;;;13.45;2.67;;;;;;;;;;4942608;28;20043;-90
2024/04/04 14:26:31;;;;;;;10.98;2.38;;;;;;;;;;4942567;28;20105;-90
2024/04/04 14:28:57;;;;;;;11.88;2.10;;;;;;;;;;4942287;28;20042;-90
2024/04/04 14:31:24;;;;;;;9.05;2.35;;;;;;;;;;4942291;28;20077;-90
2024/04/04 14:33:50;;;;;;;8.73;1.85;;;;;;;;;;4942304;28;20125;-90
2024/04/04 14:36:16;;;;;;;14.27;2.60;;;;;;;;;;4942088;28;20038;-90
2024/04/04 14:38:42;;;;;;;10.93;2.42;;;;;;;;;;4942065;28;20053;-90
2024/04/04 14:41:08;;;;;;;9.32;2.10;;;;;;;;;;4941957;28;20049;-90